sensor_id;sensor_type;location;lat;lon;timestamp;pressure;altitude;pressure_sealevel;temperature;humidity
79639;BME280;69114;49.108;8.280;2023-05-07T00:01:36;100352.25;;;12.96;78.43
79639;BME280;69114;49.108;8.280;2023-05-07T00:04:02;100348.97;;;12.94;79.04
79639;BME280;69114;49.108;8.280;2023-05-07T00:06:28;100340.75;;;12.89;80.44
79639;BME280;69114;49.108;8.280;2023-05-07T00:08:54;100337.28;;;12.83;80.54
79639;BME280;69114;49.108;8.280;2023-05-07T00:11:19;100326.91;;;12.75;81.45
79639;BME280;69114;49.108;8.280;2023-05-07T00:13:45;100328.84;;;12.57;81.22
79639;BME280;69114;49.108;8.280;2023-05-07T00:16:11;100330.38;;;12.63;81.28
79639;BME280;69114;49.108;8.280;2023-05-07T00:18:36;100327.56;;;12.54;82.10
79639;BME280;69114;49.108;8.280;2023-05-07T00:21:01;100326.22;;;12.52;81.55
79639;BME280;69114;49.108;8.280;2023-05-07T00:23:27;100332.81;;;12.65;81.48
79639;BME280;69114;49.108;8.280;2023-05-07T00:25:52;100335.81;;;12.68;81.24
79639;BME280;69114;49.108;8.280;2023-05-07T00:28:17;100343.22;;;12.73;80.93
79639;BME280;69114;49.108;8.280;2023-05-07T00:30:43;100337.28;;;12.83;79.79
79639;BME280;69114;49.108;8.280;2023-05-07T00:33:08;100342.56;;;12.93;79.46
79639;BME280;69114;49.108;8.280;2023-05-07T00:35:33;100344.19;;;12.94;79.45
79639;BME280;69114;49.108;8.280;2023-05-07T00:37:59;100340.41;;;12.99;79.34
79639;BME280;69114;49.108;8.280;2023-05-07T00:40:24;100337.47;;;13.04;79.76
79639;BME280;69114;49.108;8.280;2023-05-07T00:42:49;100325.94;;;13.14;78.30
79639;BME280;69114;49.108;8.280;2023-05-07T00:45:16;100328.72;;;13.14;78.43
79639;BME280;69114;49.108;8.280;2023-05-07T00:47:42;100317.25;;;13.16;78.44
79639;BME280;69114;49.108;8.280;2023-05-07T00:50:08;100327.75;;;13.19;78.16
79639;BME280;69114;49.108;8.280;2023-05-07T00:52:36;100327.59;;;13.24;78.06
79639;BME280;69114;49.108;8.280;2023-05-07T00:55:05;100324.50;;;13.25;77.80
79639;BME280;69114;49.108;8.280;2023-05-07T00:57:34;100316.25;;;13.29;76.90
79639;BME280;69114;49.108;8.280;2023-05-07T01:00:03;100321.72;;;13.25;77.18
79639;BME280;69114;49.108;8.280;2023-05-07T01:02:29;100312.16;;;13.26;76.92
79639;BME280;69114;49.108;8.280;2023-05-07T01:04:55;100323.34;;;13.26;77.63
79639;BME280;69114;49.108;8.280;2023-05-07T01:07:21;100315.44;;;13.28;77.11
79639;BME280;69114;49.108;8.280;2023-05-07T01:09:47;100324.66;;;13.20;77.41
79639;BME280;69114;49.108;8.280;2023-05-07T01:12:12;100324.81;;;13.24;76.84
79639;BME280;69114;49.108;8.280;2023-05-07T01:14:38;100330.41;;;13.24;77.03
79639;BME280;69114;49.108;8.280;2023-05-07T01:17:03;100321.53;;;13.22;76.76
79639;BME280;69114;49.108;8.280;2023-05-07T01:19:29;100325.78;;;13.19;77.02
79639;BME280;69114;49.108;8.280;2023-05-07T01:22:01;100324.81;;;13.15;76.86
79639;BME280;69114;49.108;8.280;2023-05-07T01:24:29;100324.31;;;13.13;76.85
79639;BME280;69114;49.108;8.280;2023-05-07T01:26:55;100326.28;;;13.04;77.62
79639;BME280;69114;49.108;8.280;2023-05-07T01:29:20;100318.06;;;12.99;78.45
79639;BME280;69114;49.108;8.280;2023-05-07T01:31:46;100320.19;;;13.02;77.47
79639;BME280;69114;49.108;8.280;2023-05-07T01:34:12;100325.28;;;13.00;78.11
79639;BME280;69114;49.108;8.280;2023-05-07T01:36:42;100319.56;;;12.96;77.90
79639;BME280;69114;49.108;8.280;2023-05-07T01:39:09;100315.41;;;12.94;78.25
79639;BME280;69114;49.108;8.280;2023-05-07T01:41:35;100317.75;;;12.92;78.89
79639;BME280;69114;49.108;8.280;2023-05-07T01:44:01;100314.44;;;12.90;79.26
79639;BME280;69114;49.108;8.280;2023-05-07T01:46:28;100314.25;;;12.86;78.47
79639;BME280;69114;49.108;8.280;2023-05-07T01:48:55;100317.91;;;12.87;78.97
79639;BME280;69114;49.108;8.280;2023-05-07T01:51:21;100314.25;;;12.86;78.52
79639;BME280;69114;49.108;8.280;2023-05-07T01:53:47;100314.44;;;12.90;78.84
79639;BME280;69114;49.108;8.280;2023-05-07T01:56:16;100317.06;;;12.86;79.44
79639;BME280;69114;49.108;8.280;2023-05-07T01:58:42;100309.34;;;12.83;79.18
79639;BME280;69114;49.108;8.280;2023-05-07T02:01:07;100312.13;;;12.74;79.95
79639;BME280;69114;49.108;8.280;2023-05-07T02:03:32;100318.22;;;12.68;80.22
79639;BME280;69114;49.108;8.280;2023-05-07T02:05:58;100313.25;;;12.65;79.33
79639;BME280;69114;49.108;8.280;2023-05-07T02:08:23;100318.34;;;12.71;78.96
79639;BME280;69114;49.108;8.280;2023-05-07T02:10:48;100320.16;;;12.76;79.30
79639;BME280;69114;49.108;8.280;2023-05-07T02:13:15;100313.75;;;12.75;79.22
79639;BME280;69114;49.108;8.280;2023-05-07T02:15:40;100316.72;;;12.70;79.33
79639;BME280;69114;49.108;8.280;2023-05-07T02:18:07;100321.81;;;12.68;79.97
79639;BME280;69114;49.108;8.280;2023-05-07T02:20:33;100323.47;;;12.69;80.08
79639;BME280;69114;49.108;8.280;2023-05-07T02:22:58;100323.13;;;12.71;80.46
79639;BME280;69114;49.108;8.280;2023-05-07T02:25:23;100324.63;;;12.68;80.82
79639;BME280;69114;49.108;8.280;2023-05-07T02:27:49;100322.13;;;12.67;80.05
79639;BME280;69114;49.108;8.280;2023-05-07T02:30:15;100325.25;;;12.65;80.29
79639;BME280;69114;49.108;8.280;2023-05-07T02:32:40;100323.81;;;12.68;80.33
79639;BME280;69114;49.108;8.280;2023-05-07T02:35:06;100335.97;;;12.63;80.37
79639;BME280;69114;49.108;8.280;2023-05-07T02:37:31;100339.38;;;12.60;80.53
79639;BME280;69114;49.108;8.280;2023-05-07T02:39:56;100332.66;;;12.61;80.96
79639;BME280;69114;49.108;8.280;2023-05-07T02:42:22;100333.66;;;12.65;80.31
79639;BME280;69114;49.108;8.280;2023-05-07T02:44:47;100326.09;;;12.66;80.10
79639;BME280;69114;49.108;8.280;2023-05-07T02:47:14;100322.00;;;12.63;80.35
79639;BME280;69114;49.108;8.280;2023-05-07T02:49:39;100320.16;;;12.59;80.39
79639;BME280;69114;49.108;8.280;2023-05-07T02:52:04;100306.81;;;12.47;80.97
79639;BME280;69114;49.108;8.280;2023-05-07T02:54:30;100307.50;;;12.44;81.46
79639;BME280;69114;49.108;8.280;2023-05-07T02:56:55;100309.28;;;12.48;81.61
79639;BME280;69114;49.108;8.280;2023-05-07T02:59:21;100309.59;;;12.47;81.73
79639;BME280;69114;49.108;8.280;2023-05-07T03:01:46;100308.59;;;12.43;81.71
79639;BME280;69114;49.108;8.280;2023-05-07T03:04:13;100305.00;;;12.42;82.00
79639;BME280;69114;49.108;8.280;2023-05-07T03:06:38;100305.66;;;12.39;81.93
79639;BME280;69114;49.108;8.280;2023-05-07T03:09:04;100313.34;;;12.34;82.03
79639;BME280;69114;49.108;8.280;2023-05-07T03:11:29;100311.72;;;12.33;81.98
79639;BME280;69114;49.108;8.280;2023-05-07T03:13:54;100302.84;;;12.30;81.60
79639;BME280;69114;49.108;8.280;2023-05-07T03:16:20;100304.16;;;12.33;82.30
79639;BME280;69114;49.108;8.280;2023-05-07T03:18:45;100298.38;;;12.29;82.50
79639;BME280;69114;49.108;8.280;2023-05-07T03:21:11;100288.69;;;12.27;82.19
79639;BME280;69114;49.108;8.280;2023-05-07T03:23:36;100288.06;;;12.30;82.35
79639;BME280;69114;49.108;8.280;2023-05-07T03:26:01;100289.38;;;12.33;81.53
79639;BME280;69114;49.108;8.280;2023-05-07T03:28:27;100290.84;;;12.30;82.32
79639;BME280;69114;49.108;8.280;2023-05-07T03:30:52;100298.38;;;12.29;81.86
79639;BME280;69114;49.108;8.280;2023-05-07T03:33:17;100296.75;;;12.28;81.63
79639;BME280;69114;49.108;8.280;2023-05-07T03:35:43;100299.53;;;12.28;81.84
79639;BME280;69114;49.108;8.280;2023-05-07T03:38:08;100300.22;;;12.25;82.43
79639;BME280;69114;49.108;8.280;2023-05-07T03:40:34;100300.38;;;12.20;82.31
79639;BME280;69114;49.108;8.280;2023-05-07T03:43:00;100295.25;;;12.22;82.11
79639;BME280;69114;49.108;8.280;2023-05-07T03:45:25;100295.91;;;12.19;82.37
79639;BME280;69114;49.108;8.280;2023-05-07T03:47:51;100301.19;;;12.21;82.31
79639;BME280;69114;49.108;8.280;2023-05-07T03:50:16;100301.47;;;12.19;82.43
79639;BME280;69114;49.108;8.280;2023-05-07T03:52:41;100307.06;;;12.19;82.55
79639;BME280;69114;49.108;8.280;2023-05-07T03:55:07;100300.84;;;12.22;81.57
79639;BME280;69114;49.108;8.280;2023-05-07T03:57:32;100315.44;;;12.19;81.92
79639;BME280;69114;49.108;8.280;2023-05-07T03:59:58;100314.78;;;12.14;82.50
79639;BME280;69114;49.108;8.280;2023-05-07T04:02:23;100307.72;;;12.16;81.55
79639;BME280;69114;49.108;8.280;2023-05-07T04:04:49;100310.84;;;12.15;82.26
79639;BME280;69114;49.108;8.280;2023-05-07T04:07:14;100315.94;;;12.13;82.32
79639;BME280;69114;49.108;8.280;2023-05-07T04:09:40;100321.50;;;12.13;82.49
79639;BME280;69114;49.108;8.280;2023-05-07T04:12:05;100322.19;;;12.18;81.84
79639;BME280;69114;49.108;8.280;2023-05-07T04:14:31;100327.78;;;12.18;82.07
79639;BME280;69114;49.108;8.280;2023-05-07T04:16:58;100323.00;;;12.19;81.90
79639;BME280;69114;49.108;8.280;2023-05-07T04:19:24;100327.78;;;12.18;82.05
79639;BME280;69114;49.108;8.280;2023-05-07T04:21:49;100334.53;;;12.26;82.16
79639;BME280;69114;49.108;8.280;2023-05-07T04:24:14;100328.28;;;12.29;82.41
79639;BME280;69114;49.108;8.280;2023-05-07T04:26:40;100338.78;;;12.23;81.99
79639;BME280;69114;49.108;8.280;2023-05-07T04:29:05;100334.69;;;12.29;82.47
79639;BME280;69114;49.108;8.280;2023-05-07T04:31:31;100328.47;;;12.33;81.61
79639;BME280;69114;49.108;8.280;2023-05-07T04:33:56;100325.69;;;12.33;81.68
79639;BME280;69114;49.108;8.280;2023-05-07T04:36:22;100328.47;;;12.33;82.16
79639;BME280;69114;49.108;8.280;2023-05-07T04:38:47;100338.00;;;12.32;82.20
79639;BME280;69114;49.108;8.280;2023-05-07T04:41:13;100329.47;;;12.37;82.13
79639;BME280;69114;49.108;8.280;2023-05-07T04:43:38;100327.50;;;12.37;82.10
79639;BME280;69114;49.108;8.280;2023-05-07T04:46:04;100331.78;;;12.35;82.61
79639;BME280;69114;49.108;8.280;2023-05-07T04:48:30;100331.28;;;12.41;82.28
79639;BME280;69114;49.108;8.280;2023-05-07T04:50:55;100335.44;;;12.44;82.34
79639;BME280;69114;49.108;8.280;2023-05-07T04:53:20;100335.41;;;12.52;81.27
79639;BME280;69114;49.108;8.280;2023-05-07T04:55:46;100337.25;;;12.57;81.26
79639;BME280;69114;49.108;8.280;2023-05-07T04:58:12;100334.97;;;12.59;81.10
79639;BME280;69114;49.108;8.280;2023-05-07T05:00:38;100340.38;;;12.64;81.18
79639;BME280;69114;49.108;8.280;2023-05-07T05:03:04;100332.00;;;12.64;81.11
79639;BME280;69114;49.108;8.280;2023-05-07T05:05:30;100340.56;;;12.68;80.63
79639;BME280;69114;49.108;8.280;2023-05-07T05:07:55;100346.97;;;12.68;80.61
79639;BME280;69114;49.108;8.280;2023-05-07T05:10:21;100345.66;;;12.74;80.17
79639;BME280;69114;49.108;8.280;2023-05-07T05:12:47;100349.47;;;12.78;80.49
79639;BME280;69114;49.108;8.280;2023-05-07T05:15:12;100350.94;;;12.85;80.16
79639;BME280;69114;49.108;8.280;2023-05-07T05:17:38;100353.41;;;12.86;80.17
79639;BME280;69114;49.108;8.280;2023-05-07T05:20:04;100361.31;;;12.93;79.98
79639;BME280;69114;49.108;8.280;2023-05-07T05:22:31;100356.03;;;13.00;79.06
79639;BME280;69114;49.108;8.280;2023-05-07T05:24:56;100364.25;;;13.05;79.23
79639;BME280;69114;49.108;8.280;2023-05-07T05:27:22;100368.88;;;13.10;78.97
79639;BME280;69114;49.108;8.280;2023-05-07T05:29:47;100370.53;;;13.11;79.30
79639;BME280;69114;49.108;8.280;2023-05-07T05:32:12;100370.03;;;13.17;78.92
79639;BME280;69114;49.108;8.280;2023-05-07T05:34:38;100381.25;;;13.26;78.65
79639;BME280;69114;49.108;8.280;2023-05-07T05:37:03;100377.78;;;13.38;78.31
79639;BME280;69114;49.108;8.280;2023-05-07T05:39:28;100385.53;;;13.41;78.09
79639;BME280;69114;49.108;8.280;2023-05-07T05:41:54;100375.16;;;13.41;78.15
79639;BME280;69114;49.108;8.280;2023-05-07T05:44:19;100372.19;;;13.46;77.34
79639;BME280;69114;49.108;8.280;2023-05-07T05:46:45;100375.00;;;13.55;78.02
79639;BME280;69114;49.108;8.280;2023-05-07T05:49:10;100383.88;;;13.57;77.32
79639;BME280;69114;49.108;8.280;2023-05-07T05:51:35;100393.91;;;13.67;78.12
79639;BME280;69114;49.108;8.280;2023-05-07T05:54:01;100387.13;;;13.76;77.49
79639;BME280;69114;49.108;8.280;2023-05-07T05:56:26;100379.88;;;13.75;77.05
79639;BME280;69114;49.108;8.280;2023-05-07T05:58:52;100372.81;;;13.87;77.50
79639;BME280;69114;49.108;8.280;2023-05-07T06:01:18;100375.22;;;13.97;76.84
79639;BME280;69114;49.108;8.280;2023-05-07T06:03:44;100378.00;;;14.05;76.59
79639;BME280;69114;49.108;8.280;2023-05-07T06:06:12;100383.25;;;14.16;76.45
79639;BME280;69114;49.108;8.280;2023-05-07T06:08:39;100377.06;;;14.40;75.94
79639;BME280;69114;49.108;8.280;2023-05-07T06:11:05;100376.19;;;14.48;74.99
79639;BME280;69114;49.108;8.280;2023-05-07T06:13:30;100368.38;;;14.62;74.00
79639;BME280;69114;49.108;8.280;2023-05-07T06:15:55;100376.22;;;14.77;74.27
79639;BME280;69114;49.108;8.280;2023-05-07T06:18:20;100373.22;;;14.82;74.47
79639;BME280;69114;49.108;8.280;2023-05-07T06:20:46;100366.69;;;14.91;74.30
79639;BME280;69114;49.108;8.280;2023-05-07T06:23:11;100368.69;;;14.90;73.50
79639;BME280;69114;49.108;8.280;2023-05-07T06:25:36;100360.91;;;14.96;74.06
79639;BME280;69114;49.108;8.280;2023-05-07T06:28:02;100362.72;;;15.00;73.50
79639;BME280;69114;49.108;8.280;2023-05-07T06:30:27;100361.47;;;15.10;73.55
79639;BME280;69114;49.108;8.280;2023-05-07T06:32:53;100363.78;;;15.08;72.64
79639;BME280;69114;49.108;8.280;2023-05-07T06:35:18;100364.94;;;15.07;70.03
79639;BME280;69114;49.108;8.280;2023-05-07T06:37:44;100362.41;;;15.14;71.79
79639;BME280;69114;49.108;8.280;2023-05-07T06:40:13;100367.75;;;15.28;70.84
79639;BME280;69114;49.108;8.280;2023-05-07T06:42:38;100374.16;;;15.28;70.71
79639;BME280;69114;49.108;8.280;2023-05-07T06:45:04;100372.94;;;15.38;69.79
79639;BME280;69114;49.108;8.280;2023-05-07T06:47:30;100376.81;;;15.33;70.64
79639;BME280;69114;49.108;8.280;2023-05-07T06:49:55;100367.81;;;15.40;69.44
79639;BME280;69114;49.108;8.280;2023-05-07T06:52:21;100382.94;;;15.48;68.49
79639;BME280;69114;49.108;8.280;2023-05-07T06:54:46;100384.84;;;15.56;68.69
79639;BME280;69114;49.108;8.280;2023-05-07T06:57:11;100383.63;;;15.66;70.52
79639;BME280;69114;49.108;8.280;2023-05-07T06:59:36;100386.63;;;15.81;69.65
79639;BME280;69114;49.108;8.280;2023-05-07T07:02:02;100385.94;;;15.97;68.03
79639;BME280;69114;49.108;8.280;2023-05-07T07:04:27;100383.59;;;15.99;68.70
79639;BME280;69114;49.108;8.280;2023-05-07T07:06:53;100387.22;;;15.99;68.13
79639;BME280;69114;49.108;8.280;2023-05-07T07:09:19;100380.34;;;16.09;67.54
79639;BME280;69114;49.108;8.280;2023-05-07T07:11:44;100388.81;;;16.21;67.19
79639;BME280;69114;49.108;8.280;2023-05-07T07:14:09;100390.91;;;16.12;67.01
79639;BME280;69114;49.108;8.280;2023-05-07T07:16:35;100393.25;;;16.10;67.94
79639;BME280;69114;49.108;8.280;2023-05-07T07:19:00;100387.72;;;16.13;66.72
79639;BME280;69114;49.108;8.280;2023-05-07T07:21:25;100386.22;;;16.28;66.25
79639;BME280;69114;49.108;8.280;2023-05-07T07:23:51;100385.75;;;16.26;67.17
79639;BME280;69114;49.108;8.280;2023-05-07T07:26:17;100390.69;;;16.42;67.41
79639;BME280;69114;49.108;8.280;2023-05-07T07:28:43;100392.44;;;16.46;64.50
79639;BME280;69114;49.108;8.280;2023-05-07T07:31:09;100394.34;;;16.67;65.88
79639;BME280;69114;49.108;8.280;2023-05-07T07:33:34;100385.56;;;16.68;64.42
79639;BME280;69114;49.108;8.280;2023-05-07T07:36:00;100396.81;;;16.93;65.65
79639;BME280;69114;49.108;8.280;2023-05-07T07:38:25;100407.09;;;17.13;64.99
79639;BME280;69114;49.108;8.280;2023-05-07T07:40:50;100409.66;;;17.18;65.17
79639;BME280;69114;49.108;8.280;2023-05-07T07:43:16;100419.56;;;17.00;65.85
79639;BME280;69114;49.108;8.280;2023-05-07T07:45:41;100421.09;;;16.97;65.10
79639;BME280;69114;49.108;8.280;2023-05-07T07:48:07;100420.03;;;17.02;65.69
79639;BME280;69114;49.108;8.280;2023-05-07T07:50:32;100407.09;;;17.13;63.30
79639;BME280;69114;49.108;8.280;2023-05-07T07:52:57;100402.63;;;17.24;63.82
79639;BME280;69114;49.108;8.280;2023-05-07T07:55:23;100393.44;;;17.39;62.84
79639;BME280;69114;49.108;8.280;2023-05-07T07:57:49;100387.25;;;17.62;63.54
79639;BME280;69114;49.108;8.280;2023-05-07T08:00:15;100389.75;;;17.51;61.85
79639;BME280;69114;49.108;8.280;2023-05-07T08:02:41;100396.84;;;17.73;62.60
79639;BME280;69114;49.108;8.280;2023-05-07T08:05:07;100416.72;;;17.92;59.53
79639;BME280;69114;49.108;8.280;2023-05-07T08:07:32;100416.53;;;17.85;61.08
79639;BME280;69114;49.108;8.280;2023-05-07T08:09:58;100417.81;;;18.04;60.77
79639;BME280;69114;49.108;8.280;2023-05-07T08:12:23;100415.88;;;18.20;61.16
79639;BME280;69114;49.108;8.280;2023-05-07T08:14:49;100419.50;;;18.36;61.06
79639;BME280;69114;49.108;8.280;2023-05-07T08:17:14;100417.31;;;18.46;59.12
79639;BME280;69114;49.108;8.280;2023-05-07T08:19:41;100413.22;;;18.27;59.09
79639;BME280;69114;49.108;8.280;2023-05-07T08:22:06;100414.78;;;18.40;59.69
79639;BME280;69114;49.108;8.280;2023-05-07T08:24:32;100417.50;;;18.21;59.30
79639;BME280;69114;49.108;8.280;2023-05-07T08:26:57;100422.97;;;18.46;60.53
79639;BME280;69114;49.108;8.280;2023-05-07T08:29:22;100424.81;;;18.70;60.34
79639;BME280;69114;49.108;8.280;2023-05-07T08:31:48;100421.53;;;18.83;58.95
79639;BME280;69114;49.108;8.280;2023-05-07T08:34:13;100427.72;;;18.73;58.25
79639;BME280;69114;49.108;8.280;2023-05-07T08:36:38;100418.59;;;18.64;59.27
79639;BME280;69114;49.108;8.280;2023-05-07T08:39:04;100411.25;;;18.91;58.04
79639;BME280;69114;49.108;8.280;2023-05-07T08:41:30;100413.81;;;19.15;59.66
79639;BME280;69114;49.108;8.280;2023-05-07T08:43:57;100421.44;;;19.50;58.23
79639;BME280;69114;49.108;8.280;2023-05-07T08:46:24;100421.41;;;19.47;59.26
79639;BME280;69114;49.108;8.280;2023-05-07T08:48:51;100412.06;;;19.46;59.07
79639;BME280;69114;49.108;8.280;2023-05-07T08:51:21;100414.41;;;19.99;57.10
79639;BME280;69114;49.108;8.280;2023-05-07T08:53:47;100418.84;;;20.19;55.21
79639;BME280;69114;49.108;8.280;2023-05-07T08:56:14;100416.25;;;20.10;57.31
79639;BME280;69114;49.108;8.280;2023-05-07T08:58:41;100406.03;;;20.25;57.14
79639;BME280;69114;49.108;8.280;2023-05-07T09:01:13;100405.63;;;20.27;55.13
79639;BME280;69114;49.108;8.280;2023-05-07T09:03:39;100413.84;;;20.55;53.76
79639;BME280;69114;49.108;8.280;2023-05-07T09:06:05;100409.19;;;20.66;55.42
79639;BME280;69114;49.108;8.280;2023-05-07T09:08:32;100405.34;;;20.78;55.30
79639;BME280;69114;49.108;8.280;2023-05-07T09:10:58;100406.03;;;21.24;54.69
79639;BME280;69114;49.108;8.280;2023-05-07T09:16:01;100402.88;;;21.29;51.38
79639;BME280;69114;49.108;8.280;2023-05-07T09:18:34;100397.31;;;21.36;50.33
79639;BME280;69114;49.108;8.280;2023-05-07T09:20:59;100395.69;;;21.35;50.35
79639;BME280;69114;49.108;8.280;2023-05-07T09:23:25;100391.44;;;21.48;51.49
79639;BME280;69114;49.108;8.280;2023-05-07T09:25:50;100403.09;;;21.43;52.82
79639;BME280;69114;49.108;8.280;2023-05-07T09:28:15;100396.88;;;21.64;50.28
79639;BME280;69114;49.108;8.280;2023-05-07T09:33:16;100399.25;;;21.59;50.59
79639;BME280;69114;49.108;8.280;2023-05-07T09:35:42;100397.78;;;21.38;52.48
79639;BME280;69114;49.108;8.280;2023-05-07T09:38:07;100396.41;;;21.89;51.73
79639;BME280;69114;49.108;8.280;2023-05-07T09:40:33;100398.84;;;21.90;51.00
79639;BME280;69114;49.108;8.280;2023-05-07T09:43:08;100396.56;;;22.07;52.12
79639;BME280;69114;49.108;8.280;2023-05-07T09:45:34;100392.25;;;22.16;51.99
79639;BME280;69114;49.108;8.280;2023-05-07T09:48:04;100396.81;;;21.91;49.23
79639;BME280;69114;49.108;8.280;2023-05-07T09:50:35;100391.56;;;21.59;50.11
79639;BME280;69114;49.108;8.280;2023-05-07T09:53:01;100387.38;;;21.83;51.92
79639;BME280;69114;49.108;8.280;2023-05-07T09:55:28;100397.16;;;22.19;52.39
79639;BME280;69114;49.108;8.280;2023-05-07T09:57:54;100385.88;;;21.89;48.84
79639;BME280;69114;49.108;8.280;2023-05-07T10:00:21;100384.13;;;21.81;49.61
79639;BME280;69114;49.108;8.280;2023-05-07T10:02:49;100393.38;;;22.08;50.21
79639;BME280;69114;49.108;8.280;2023-05-07T10:05:17;100386.88;;;22.08;49.38
79639;BME280;69114;49.108;8.280;2023-05-07T10:07:43;100395.22;;;22.31;48.77
79639;BME280;69114;49.108;8.280;2023-05-07T10:10:10;100385.38;;;22.17;49.14
79639;BME280;69114;49.108;8.280;2023-05-07T10:12:35;100386.28;;;22.29;50.35
79639;BME280;69114;49.108;8.280;2023-05-07T10:15:09;100388.13;;;22.51;50.50
79639;BME280;69114;49.108;8.280;2023-05-07T10:17:37;100387.78;;;22.60;49.07
79639;BME280;69114;49.108;8.280;2023-05-07T10:20:03;100378.66;;;22.88;50.05
79639;BME280;69114;49.108;8.280;2023-05-07T10:22:32;100377.31;;;23.22;46.84
79639;BME280;69114;49.108;8.280;2023-05-07T10:25:03;100379.53;;;22.92;48.86
79639;BME280;69114;49.108;8.280;2023-05-07T10:27:30;100373.72;;;23.33;48.54
79639;BME280;69114;49.108;8.280;2023-05-07T10:30:18;100372.53;;;23.41;48.97
79639;BME280;69114;49.108;8.280;2023-05-07T10:32:53;100368.91;;;23.55;48.44
79639;BME280;69114;49.108;8.280;2023-05-07T10:35:26;100366.44;;;23.42;45.65
79639;BME280;69114;49.108;8.280;2023-05-07T10:37:54;100369.25;;;23.35;48.29
79639;BME280;69114;49.108;8.280;2023-05-07T10:45:25;100365.50;;;24.29;47.64
79639;BME280;69114;49.108;8.280;2023-05-07T10:48:13;100366.25;;;23.94;45.33
79639;BME280;69114;49.108;8.280;2023-05-07T10:50:40;100363.13;;;24.45;44.29
79639;BME280;69114;49.108;8.280;2023-05-07T10:55:50;100356.97;;;24.29;43.45
79639;BME280;69114;49.108;8.280;2023-05-07T10:58:26;100361.81;;;24.14;43.70
79639;BME280;69114;49.108;8.280;2023-05-07T11:00:57;100363.13;;;24.45;46.80
79639;BME280;69114;49.108;8.280;2023-05-07T11:03:23;100359.00;;;24.21;44.50
79639;BME280;69114;49.108;8.280;2023-05-07T11:06:08;100350.41;;;23.89;44.28
79639;BME280;69114;49.108;8.280;2023-05-07T11:08:54;100359.03;;;24.68;45.39
79639;BME280;69114;49.108;8.280;2023-05-07T11:14:11;100345.88;;;25.35;42.70
79639;BME280;69114;49.108;8.280;2023-05-07T11:16:37;100345.63;;;24.47;42.53
79639;BME280;69114;49.108;8.280;2023-05-07T11:19:03;100355.28;;;23.99;43.65
79639;BME280;69114;49.108;8.280;2023-05-07T11:21:40;100338.59;;;23.80;44.34
79639;BME280;69114;49.108;8.280;2023-05-07T11:24:07;100338.69;;;24.80;45.08
79639;BME280;69114;49.108;8.280;2023-05-07T11:26:49;100336.94;;;25.36;43.91
79639;BME280;69114;49.108;8.280;2023-05-07T11:29:19;100348.56;;;25.81;42.68
79639;BME280;69114;49.108;8.280;2023-05-07T11:31:51;100340.56;;;26.21;39.20
79639;BME280;69114;49.108;8.280;2023-05-07T11:34:24;100337.19;;;25.67;41.99
79639;BME280;69114;49.108;8.280;2023-05-07T11:36:51;100342.28;;;25.06;43.48
79639;BME280;69114;49.108;8.280;2023-05-07T11:39:27;100338.44;;;25.66;42.16
79639;BME280;69114;49.108;8.280;2023-05-07T11:41:53;100340.84;;;26.37;39.05
79639;BME280;69114;49.108;8.280;2023-05-07T11:44:18;100342.56;;;26.24;38.74
79639;BME280;69114;49.108;8.280;2023-05-07T11:46:44;100343.91;;;26.09;39.89
79639;BME280;69114;49.108;8.280;2023-05-07T11:49:10;100344.72;;;26.65;38.42
79639;BME280;69114;49.108;8.280;2023-05-07T11:51:35;100336.84;;;25.54;40.58
79639;BME280;69114;49.108;8.280;2023-05-07T11:54:03;100335.75;;;26.63;38.24
79639;BME280;69114;49.108;8.280;2023-05-07T11:56:34;100347.22;;;27.00;38.44
79639;BME280;69114;49.108;8.280;2023-05-07T11:59:00;100333.16;;;27.85;37.21
79639;BME280;69114;49.108;8.280;2023-05-07T12:01:25;100331.25;;;28.29;37.63
79639;BME280;69114;49.108;8.280;2023-05-07T12:03:51;100329.78;;;28.91;33.66
79639;BME280;69114;49.108;8.280;2023-05-07T12:06:16;100322.72;;;28.76;35.59
79639;BME280;69114;49.108;8.280;2023-05-07T12:08:43;100322.63;;;28.32;36.18
79639;BME280;69114;49.108;8.280;2023-05-07T12:11:14;100320.09;;;28.85;34.08
79639;BME280;69114;49.108;8.280;2023-05-07T12:13:41;100323.72;;;28.42;35.77
79639;BME280;69114;49.108;8.280;2023-05-07T12:16:06;100320.19;;;27.77;36.79
79639;BME280;69114;49.108;8.280;2023-05-07T12:18:33;100319.81;;;27.75;37.49
79639;BME280;69114;49.108;8.280;2023-05-07T12:20:59;100318.31;;;27.94;35.96
79639;BME280;69114;49.108;8.280;2023-05-07T12:23:25;100327.75;;;26.43;41.21
79639;BME280;69114;49.108;8.280;2023-05-07T12:25:50;100328.63;;;26.37;39.10
79639;BME280;69114;49.108;8.280;2023-05-07T12:28:17;100326.56;;;26.37;41.00
79639;BME280;69114;49.108;8.280;2023-05-07T12:30:44;100315.88;;;25.93;41.16
79639;BME280;69114;49.108;8.280;2023-05-07T12:33:10;100326.88;;;24.89;42.30
79639;BME280;69114;49.108;8.280;2023-05-07T12:35:38;100322.31;;;25.20;41.76
79639;BME280;69114;49.108;8.280;2023-05-07T12:38:08;100319.03;;;25.25;40.57
79639;BME280;69114;49.108;8.280;2023-05-07T12:40:38;100326.84;;;24.78;41.71
79639;BME280;69114;49.108;8.280;2023-05-07T12:43:04;100322.31;;;25.20;40.23
79639;BME280;69114;49.108;8.280;2023-05-07T12:45:29;100314.28;;;24.65;41.02
79639;BME280;69114;49.108;8.280;2023-05-07T12:47:54;100313.56;;;25.63;39.74
79639;BME280;69114;49.108;8.280;2023-05-07T12:50:20;100323.44;;;25.47;39.38
79639;BME280;69114;49.108;8.280;2023-05-07T12:52:48;100314.34;;;26.33;36.99
79639;BME280;69114;49.108;8.280;2023-05-07T12:55:15;100306.53;;;25.92;37.58
79639;BME280;69114;49.108;8.280;2023-05-07T12:57:45;100312.63;;;26.50;36.71
79639;BME280;69114;49.108;8.280;2023-05-07T13:00:11;100316.63;;;26.60;36.26
79639;BME280;69114;49.108;8.280;2023-05-07T13:02:41;100308.44;;;26.58;37.49